Latest Weather Observations for Garden Island

IDW60801

Issued at 10:13 am WST Sunday 28 November 2021 (issued every 10 minutes, with the page automatically refreshed every 10 minutes)

About weather observations | Map of weather stations | Latest weather observations for WA | Other Formats
Station Details ID: 009256 Name: GARDEN ISLAND HSF Lat: -32.24 Lon: 115.68 Height: 6.0 m
Data from the previous 72 hours. | See also: Recent months at Garden Island
Date/Time
WST
Temp
°C
App
Temp
°C
Dew
Point
°C
Rel
Hum
%
Delta-T
°C
Wind Press
QNH
hPa
Press
MSL
hPa
Rain since
9am
mm
Dir  Spd
km/h
Gust
km/h
Spd
kts
Gust
kts
28/10:00am 26.2 25.6 14.6 48 6.9 NW 11 15 6 8 1014.8 1014.8 0.0
28/09:30am 24.0 26.5 20.3 80 2.4 SSW 7 9 4 5 1015.0 1015.0 0.0
28/09:00am 23.5 24.9 20.4 83 2.0 SW 13 17 7 9 1015.3 1015.3 0.0
28/08:30am 23.2 25.2 20.7 86 1.6 WSW 11 15 6 8 1015.3 1015.3 0.0
28/08:00am 22.9 25.1 20.4 86 1.6 WSW 9 11 5 6 1015.3 1015.3 0.0
28/07:30am 22.3 25.8 20.4 89 1.2 SW 2 7 1 4 1015.0 1015.0 0.0
28/07:00am 21.9 24.7 20.5 92 0.9 SSW 6 11 3 6 1014.9 1014.9 0.0
28/06:30am 21.2 22.6 20.4 95 0.5 SW 13 22 7 12 1014.8 1014.8 0.0
28/06:00am 20.5 20.9 19.8 96 0.4 WSW 17 26 9 14 1014.3 1014.3 0.0
28/05:30am 18.2 20.5 17.6 96 0.4 SW 2 6 1 3 1013.8 1013.8 0.0
28/05:00am 17.3 19.4 16.2 93 0.7 CALM 0 0 0 0 1013.7 1013.7 0.0
28/04:30am 17.7 19.9 16.4 92 0.8 CALM 0 0 0 0 1013.3 1013.3 0.0
28/04:00am 19.5 21.1 17.8 90 1.0 SSW 6 9 3 5 1013.4 1013.4 0.0
28/03:30am 20.8 22.7 18.9 89 1.2 S 7 9 4 5 1013.4 1013.4 0.0
28/03:00am 21.0 22.0 18.6 86 1.5 SSW 11 13 6 7 1013.5 1013.5 0.0
28/02:30am 21.3 21.9 18.5 84 1.8 SSW 13 19 7 10 1013.5 1013.5 0.0
28/02:00am 21.2 20.7 18.6 85 1.6 SW 19 22 10 12 1013.8 1013.8 0.0
28/01:30am 21.2 22.8 19.1 88 1.3 S 9 11 5 6 1013.8 1013.8 0.0
28/01:00am 21.5 23.0 18.9 85 1.6 S 9 11 5 6 1014.2 1014.2 0.0
28/12:30am 21.3 22.2 18.5 84 1.8 SW 11 13 6 7 1014.2 1014.2 0.0
28/12:00am 19.6 20.2 15.7 78 2.3 SW 7 9 4 5 1014.5 1014.5 0.0
 
Date/Time
WST
Temp
°C
App
Temp
°C
Dew
Point
°C
Rel
Hum
%
Delta-T
°C
Wind Press
QNH
hPa
Press
MSL
hPa
Rain since
9am
mm
Dir  Spd
km/h
Gust
km/h
Spd
kts
Gust
kts
27/11:30pm 18.0 18.4 11.3 65 3.6 CALM 0 0 0 0 1014.7 1014.7 0.0
27/11:00pm 20.8 19.5 11.2 54 5.3 SSE 9 9 5 5 1014.8 1014.8 0.0
27/10:30pm 18.9 18.0 11.5 62 4.1 SSE 7 9 4 5 1015.1 1015.1 0.0
27/10:00pm 23.0 21.9 12.0 50 6.2 SSE 9 11 5 6 1015.1 1015.1 0.0
27/09:30pm 23.3 22.6 14.3 57 5.3 SSE 11 13 6 7 1015.1 1015.1 0.0
27/09:00pm 22.9 22.7 16.7 68 3.8 SSE 13 13 7 7 1015.2 1015.2 0.0
27/08:30pm 23.7 23.7 18.1 71 3.5 S 15 17 8 9 1015.1 1015.1 0.0
27/08:00pm 24.3 23.2 17.3 65 4.3 S 19 20 10 11 1015.0 1015.0 0.0
27/07:30pm 23.8 22.9 17.8 69 3.7 S 19 20 10 11 1014.9 1014.9 0.0
27/07:00pm 23.9 23.4 17.9 69 3.8 S 17 17 9 9 1014.7 1014.7 0.0
27/06:30pm 23.9 23.5 18.8 73 3.2 S 19 20 10 11 1014.6 1014.6 0.0
27/06:00pm 23.8 24.5 19.7 78 2.6 SSW 15 17 8 9 1014.5 1014.5 0.0
27/05:30pm 24.3 24.5 19.4 74 3.1 S 17 19 9 10 1014.3 1014.3 0.0
27/05:00pm 24.3 25.6 20.2 78 2.7 SSW 13 15 7 8 1014.3 1014.3 0.0
27/04:30pm 23.6 23.7 19.9 80 2.4 SSW 19 20 10 11 1014.5 1014.5 0.0
27/04:00pm 24.2 25.2 19.5 75 3.0 S 13 15 7 8 1014.7 1014.7 0.0
27/03:30pm 25.3 26.1 19.9 72 3.5 SSW 15 17 8 9 1014.9 1014.9 0.0
27/03:00pm 25.0 25.0 19.8 73 3.4 SSW 19 20 10 11 1015.2 1015.2 0.0
27/02:30pm 25.6 25.5 19.9 70 3.7 SSW 20 24 11 13 1015.3 1015.3 0.0
27/02:00pm 26.1 26.1 19.7 68 4.1 SW 19 20 10 11 1015.5 1015.5 0.0
27/01:30pm 26.6 27.2 19.5 65 4.6 SSW 15 19 8 10 1015.7 1015.7 0.0
27/01:00pm 26.5 27.3 19.9 67 4.3 SSW 15 17 8 9 1015.8 1015.8 0.0
27/12:30pm 28.6 29.6 18.7 55 6.4 SW 11 13 6 7 1016.0 1016.0 0.0
27/12:00pm 30.3 29.9 15.2 40 9.3 WSW 11 13 6 7 1016.4 1016.4 0.0
27/11:30am 33.3 31.5 9.4 23 13.6 NNE 9 17 5 9 1016.7 1016.7 0.0
27/11:00am 32.8 31.0 10.8 26 12.7 NE 11 15 6 8 1017.0 1017.0 0.0
27/10:30am 32.2 29.8 11.4 28 12.1 NE 15 20 8 11 1017.1 1017.1 0.0
27/10:00am 30.3 28.1 10.8 30 11.2 NNE 13 17 7 9 1017.2 1017.2 0.0
27/09:30am 28.1 25.9 12.0 36 9.3 ENE 15 20 8 11 1017.5 1017.5 0.0
27/09:00am 27.8 25.5 13.0 40 8.7 ENE 17 20 9 11 1017.5 1017.5 0.0
27/08:30am 26.2 24.3 13.0 44 7.7 ENE 15 20 8 11 1017.7 1017.7 0.0
27/08:00am 24.0 22.5 13.2 50 6.2 ENE 13 20 7 11 1018.0 1018.0 0.0
27/07:30am 23.3 21.0 12.9 52 6.0 ENE 17 22 9 12 1017.9 1017.9 0.0
27/07:00am 22.8 21.2 12.7 53 5.8 ENE 13 19 7 10 1017.8 1017.8 0.0
27/06:30am 20.3 19.1 12.8 62 4.2 E 11 13 6 7 1017.7 1017.7 0.0
27/06:00am 21.0 20.1 13.7 63 4.2 ESE 11 13 6 7 1017.7 1017.7 0.0
27/05:30am 19.4 18.7 13.3 68 3.5 E 9 11 5 6 1017.7 1017.7 0.0
27/05:00am 19.3 17.6 12.6 65 3.7 E 13 17 7 9 1017.5 1017.5 0.0
27/04:30am 19.3 17.7 12.8 66 3.7 ESE 13 17 7 9 1017.2 1017.2 0.0
27/04:00am 19.2 17.7 13.2 68 3.4 ESE 13 17 7 9 1017.1 1017.1 0.0
27/03:30am 18.9 17.5 13.5 71 3.1 E 13 15 7 8 1016.9 1016.9 0.0
27/03:00am 18.4 17.9 13.7 74 2.7 ESE 9 11 5 6 1016.7 1016.7 0.0
27/02:30am 20.0 19.2 14.1 69 3.4 SE 11 13 6 7 1016.8 1016.8 0.0
27/02:00am 20.6 20.3 15.4 72 3.1 SE 11 11 6 6 1016.9 1016.9 0.0
27/01:30am 20.4 19.8 14.5 69 3.4 SE 11 13 6 7 1017.0 1017.0 0.0
27/01:00am 21.1 21.0 16.9 77 2.6 SSE 13 17 7 9 1017.3 1017.3 0.0
27/12:30am 20.8 21.4 17.8 83 1.9 SSE 11 13 6 7 1017.3 1017.3 0.0
27/12:00am 21.1 21.5 18.1 83 1.9 SSE 13 15 7 8 1017.2 1017.2 0.0
 
Date/Time
WST
Temp
°C
App
Temp
°C
Dew
Point
°C
Rel
Hum
%
Delta-T
°C
Wind Press
QNH
hPa
Press
MSL
hPa
Rain since
9am
mm
Dir  Spd
km/h
Gust
km/h
Spd
kts
Gust
kts
26/11:30pm 21.3 21.3 18.9 86 1.5 S 17 19 9 10 1017.4 1017.4 0.0
26/11:00pm 21.1 22.0 19.2 89 1.2 S 13 15 7 8 1017.6 1017.6 0.0
26/10:30pm 21.3 21.7 19.0 87 1.5 S 15 15 8 8 1017.8 1017.8 0.0
26/10:00pm 21.2 21.3 19.1 88 1.3 SSW 17 19 9 10 1018.0 1018.0 0.0
26/09:30pm 21.8 21.4 19.0 84 1.8 S 19 20 10 11 1018.0 1018.0 0.0
26/09:00pm 21.7 21.8 19.1 85 1.6 S 17 20 9 11 1018.0 1018.0 0.0
26/08:30pm 21.3 21.0 19.2 88 1.3 S 19 20 10 11 1017.8 1017.8 0.0
26/08:00pm 21.5 20.1 18.7 84 1.8 S 24 28 13 15 1017.6 1017.6 0.0
26/07:30pm 21.6 18.9 18.4 82 2.0 S 30 35 16 19 1017.4 1017.4 0.0
26/07:00pm 21.5 18.7 18.3 82 2.0 S 30 35 16 19 1017.3 1017.3 0.0
26/06:30pm 21.8 18.7 18.4 81 2.1 S 32 35 17 19 1017.1 1017.1 0.0
26/06:00pm 22.0 19.6 18.2 79 2.4 S 28 33 15 18 1016.9 1016.9 0.0
26/05:30pm 22.3 19.5 18.3 78 2.5 S 30 33 16 18 1016.7 1016.7 0.0
26/05:00pm 22.3 19.5 18.3 78 2.5 SSW 30 35 16 19 1016.6 1016.6 0.0
26/04:30pm 22.5 19.4 18.3 77 2.6 SSW 32 37 17 20 1016.7 1016.7 0.0
26/04:00pm 22.8 19.6 18.1 75 2.9 SSW 32 35 17 19 1016.8 1016.8 0.0
26/03:30pm 22.8 20.0 18.3 76 2.8 SSW 30 33 16 18 1017.0 1017.0 0.0
26/03:00pm 23.1 20.7 18.2 74 3.1 SSW 28 32 15 17 1016.9 1016.9 0.0
26/02:30pm 23.3 21.9 18.0 72 3.3 SW 22 28 12 15 1017.0 1017.0 0.0
26/02:00pm 24.1 22.7 18.7 72 3.4 SSW 24 30 13 16 1017.3 1017.3 0.0
26/01:30pm 23.9 22.7 18.5 72 3.4 SW 22 28 12 15 1017.4 1017.4 0.0
26/01:00pm 24.5 23.8 18.2 68 4.0 SW 19 22 10 12 1017.8 1017.8 0.0
26/12:30pm 26.3 26.7 18.9 63 4.7 WSW 15 19 8 10 1018.1 1018.1 0.0
26/12:00pm 25.9 25.8 17.8 61 5.1 SW 15 19 8 10 1018.3 1018.3 0.0
26/11:30am 27.0 27.3 18.0 58 5.7 SW 13 17 7 9 1018.6 1018.6 0.0
26/11:00am 29.5 29.5 13.7 38 9.4 SE 6 11 3 6 1018.8 1018.8 0.0
26/10:30am 27.9 26.9 12.3 38 9.1 SSE 9 13 5 7 1019.1 1019.1 0.0
26/10:00am 28.1 27.0 13.2 39 8.8 ESE 11 17 6 9 1019.4 1019.4 0.0
26/09:30am 27.1 24.8 11.6 38 8.9 ESE 15 19 8 10 1019.6 1019.6 0.0
26/09:00am 25.9 23.3 12.0 42 7.9 ESE 17 20 9 11 1019.8 1019.8 0.0
26/08:30am 24.8 22.5 13.0 47 6.8 ESE 17 20 9 11 1019.8 1019.8 0.0
26/08:00am 23.4 21.5 13.0 52 6.0 ESE 15 19 8 10 1019.9 1019.9 0.0
26/07:30am 22.5 20.1 12.7 54 5.6 E 17 22 9 12 1019.8 1019.8 0.0
26/07:00am 21.3 18.4 12.2 56 5.1 E 19 24 10 13 1019.6 1019.6 0.0
26/06:30am 20.3 17.4 12.3 60 4.5 E 19 26 10 14 1019.4 1019.4 0.0
26/06:00am 19.1 17.5 12.8 67 3.5 ESE 13 20 7 11 1019.2 1019.2 0.0
26/05:30am 18.6 16.9 12.4 67 3.5 E 13 19 7 10 1019.0 1019.0 0.0
26/05:00am 18.4 16.3 12.4 68 3.3 E 15 22 8 12 1018.6 1018.6 0.0
26/04:30am 18.5 16.4 12.5 68 3.3 E 15 22 8 12 1018.2 1018.2 0.0
26/04:00am 18.6 16.4 12.1 66 3.6 E 15 20 8 11 1018.2 1018.2 0.0
26/03:30am 18.6 16.6 12.6 68 3.4 E 15 20 8 11 1018.1 1018.1 0.0
26/03:00am 18.8 17.1 12.3 66 3.6 E 13 17 7 9 1018.1 1018.1 0.0
26/02:30am 19.5 16.9 12.0 62 4.2 E 17 20 9 11 1018.0 1018.0 0.0
26/02:00am 20.0 17.5 12.3 61 4.3 ESE 17 22 9 12 1018.0 1018.0 0.0
26/01:30am 20.5 18.1 12.5 60 4.5 ESE 17 22 9 12 1018.2 1018.2 0.0
26/01:00am 20.7 17.7 11.9 57 4.9 ESE 19 24 10 13 1018.3 1018.3 0.0
26/12:30am 19.1 17.4 12.4 65 3.7 ESE 13 15 7 8 1018.3 1018.3 0.0
26/12:00am 20.0 18.7 13.7 67 3.6 SE 13 15 7 8 1018.4 1018.4 0.0
 
Date/Time
WST
Temp
°C
App
Temp
°C
Dew
Point
°C
Rel
Hum
%
Delta-T
°C
Wind Press
QNH
hPa
Press
MSL
hPa
Rain since
9am
mm
Dir  Spd
km/h
Gust
km/h
Spd
kts
Gust
kts
25/11:30pm 20.8 19.2 15.1 70 3.4 SSE 17 19 9 10 1018.5 1018.5 0.0
25/11:00pm 21.2 20.0 16.2 73 3.0 SSE 17 20 9 11 1018.6 1018.6 0.0
25/10:30pm 21.1 20.3 16.1 73 3.0 S 15 19 8 10 1018.7 1018.7 0.0
25/10:00pm 20.7 21.3 18.5 87 1.4 S 13 15 7 8 1018.8 1018.8 0.0
25/09:30pm 20.7 20.0 18.3 86 1.5 S 19 24 10 13 1018.9 1018.9 0.0
25/09:00pm 20.7 19.0 18.1 85 1.6 S 24 28 13 15 1019.0 1019.0 0.0
25/08:30pm 20.7 18.1 17.9 84 1.7 S 28 32 15 17 1019.0 1019.0 0.0
25/08:00pm 20.7 18.0 17.5 82 2.0 S 28 32 15 17 1018.8 1018.8 0.0
25/07:30pm 20.7 18.4 17.7 83 1.8 S 26 32 14 17 1018.6 1018.6 0.0
25/07:00pm 20.8 18.6 17.8 83 1.8 SSW 26 30 14 16 1018.5 1018.5 0.0
25/06:30pm 21.0 18.7 17.6 81 2.1 SSW 26 32 14 17 1018.2 1018.2 0.0
25/06:00pm 21.5 19.2 17.7 79 2.3 SSW 26 30 14 16 1018.0 1018.0 0.0
25/05:30pm 21.4 18.3 17.6 79 2.3 SSW 30 33 16 18 1017.8 1017.8 0.0
25/05:00pm 21.7 18.3 17.7 78 2.5 SSW 32 35 17 19 1017.7 1017.7 0.0
25/04:30pm 22.2 19.2 17.8 76 2.7 SSW 30 33 16 18 1017.9 1017.9 0.0
25/04:00pm 22.6 19.9 17.5 73 3.1 SSW 28 33 15 18 1017.9 1017.9 0.0
25/03:30pm 22.8 20.0 17.3 71 3.4 SSW 28 30 15 16 1017.9 1017.9 0.0
25/03:00pm 22.9 20.5 17.4 71 3.4 SSW 26 30 14 16 1018.1 1018.1 0.0
25/02:30pm 23.1 20.7 17.3 70 3.6 SSW 26 30 14 16 1018.3 1018.3 0.0
25/02:00pm 23.2 21.4 17.9 72 3.3 SSW 24 28 13 15 1018.5 1018.5 0.0
25/01:30pm 23.1 21.2 17.6 71 3.4 SSW 24 28 13 15 1018.7 1018.7 0.0
25/01:00pm 22.7 20.3 17.4 72 3.3 SSW 26 30 14 16 1018.9 1018.9 0.0
25/12:30pm 23.9 22.1 16.9 65 4.3 SSW 22 26 12 14 1019.2 1019.2 0.0
25/12:00pm 24.7 23.2 16.2 59 5.2 SW 19 20 10 11 1019.5 1019.5 0.0
25/11:30am 27.5 26.5 12.3 39 8.8 SSE 9 13 5 7 1019.7 1019.7 0.0
25/11:00am 27.2 25.1 11.3 37 9.0 SE 13 17 7 9 1020.0 1020.0 0.0
25/10:30am 27.8 24.6 8.6 30 10.5 ESE 15 19 8 10 1020.2 1020.2 0.0

Other formats

Comma delimited format used in spreadsheet applications
http://www.bom.gov.au/fwo/IDW60801/IDW60801.95607.axf

JavaScript Object Notation format (JSON) in row-major order
http://www.bom.gov.au/fwo/IDW60801/IDW60801.95607.json

Data quality

Most of these data are generated automatically and are frequently updated. Quality checks on data are not normally performed. It is possible for incorrect values to appear. Refer to information at About Latest Weather Observations and please check the disclaimer before using these data.